createdAt,value
2018-02-25T00:02:24.145Z,1.80
2018-02-25T00:04:54.554Z,1.70
2018-02-25T00:07:25.592Z,1.47
2018-02-25T00:09:55.818Z,1.50
2018-02-25T00:12:27.098Z,1.43
2018-02-25T00:14:57.264Z,1.90
2018-02-25T00:17:27.275Z,1.90
2018-02-25T00:19:57.737Z,1.77
2018-02-25T00:22:31.751Z,1.60
2018-02-25T00:25:01.731Z,2.07
2018-02-25T00:27:32.037Z,1.70
2018-02-25T00:30:02.099Z,1.70
2018-02-25T00:32:32.760Z,1.60
2018-02-25T00:35:02.822Z,2.43
2018-02-25T00:37:33.110Z,1.83
2018-02-25T00:40:03.503Z,1.60
2018-02-25T00:42:33.622Z,1.57
2018-02-25T00:45:04.014Z,1.50
2018-02-25T00:47:34.335Z,1.70
2018-02-25T00:50:04.528Z,1.90
2018-02-25T00:52:34.575Z,1.90
2018-02-25T00:55:04.608Z,1.97
2018-02-25T00:57:34.582Z,1.30
2018-02-25T01:00:04.605Z,1.60
2018-02-25T01:02:34.902Z,1.70
2018-02-25T01:05:06.282Z,2.07
2018-02-25T01:07:36.307Z,1.73
2018-02-25T01:10:06.488Z,1.90
2018-02-25T01:12:36.631Z,1.80
2018-02-25T01:15:06.633Z,1.80
2018-02-25T01:17:37.458Z,1.50
2018-02-25T01:20:08.329Z,1.40
2018-02-25T01:22:38.746Z,1.73
2018-02-25T01:25:09.027Z,1.70
2018-02-25T01:27:39.150Z,1.50
2018-02-25T01:30:09.313Z,1.50
2018-02-25T01:32:40.503Z,2.50
2018-02-25T01:35:10.614Z,1.67
2018-02-25T01:37:40.660Z,1.93
2018-02-25T01:40:11.098Z,2.00
2018-02-25T01:42:41.414Z,1.60
2018-02-25T01:45:12.511Z,1.27
2018-02-25T01:47:42.663Z,1.27
2018-02-25T01:50:13.348Z,1.70
2018-02-25T01:52:43.904Z,1.80
2018-02-25T01:55:14.279Z,2.10
2018-02-25T01:57:44.300Z,1.57
2018-02-25T02:00:14.650Z,1.87
2018-02-25T02:02:44.706Z,1.57
2018-02-25T02:05:14.907Z,1.60
2018-02-25T02:07:45.159Z,1.70
2018-02-25T02:10:15.157Z,1.60
2018-02-25T02:12:45.736Z,1.60
2018-02-25T02:15:16.763Z,1.53
2018-02-25T02:17:47.739Z,2.30
2018-02-25T02:20:17.870Z,1.30
2018-02-25T02:22:48.379Z,1.70
2018-02-25T02:25:19.167Z,1.80
2018-02-25T02:27:49.704Z,1.60
2018-02-25T02:30:19.881Z,1.80
2018-02-25T02:32:50.876Z,1.77
2018-02-25T02:35:21.860Z,1.80
2018-02-25T02:37:52.018Z,1.77
2018-02-25T02:40:22.096Z,1.90
2018-02-25T02:42:52.828Z,1.93
2018-02-25T02:45:22.803Z,1.80
2018-02-25T02:47:54.628Z,1.53
2018-02-25T02:50:25.095Z,1.80
2018-02-25T02:52:56.776Z,1.57
2018-02-25T02:55:27.232Z,1.93
2018-02-25T02:57:57.797Z,1.73
2018-02-25T03:00:27.766Z,2.07
2018-02-25T03:02:58.368Z,1.67
2018-02-25T03:05:28.503Z,1.53
2018-02-25T03:07:58.776Z,2.00
2018-02-25T03:10:28.898Z,1.73
2018-02-25T03:13:00.006Z,1.87
2018-02-25T03:15:30.384Z,1.60
2018-02-25T03:18:00.651Z,1.97
2018-02-25T03:20:31.261Z,1.33
2018-02-25T03:23:01.520Z,1.50
2018-02-25T03:25:31.883Z,1.60
2018-02-25T03:28:02.233Z,1.30
2018-02-25T03:30:33.257Z,1.70
2018-02-25T03:33:03.932Z,2.17
2018-02-25T03:35:34.384Z,1.63
2018-02-25T03:38:04.748Z,1.40
2018-02-25T03:40:35.222Z,1.90
2018-02-25T03:43:05.739Z,1.90
2018-02-25T03:45:36.931Z,1.70
2018-02-25T03:48:07.687Z,1.83
2018-02-25T03:50:38.403Z,2.30
2018-02-25T03:53:08.900Z,1.50
2018-02-25T03:55:39.460Z,2.37
2018-02-25T03:58:09.654Z,1.80
2018-02-25T04:00:39.871Z,1.70
2018-02-25T04:03:10.652Z,1.60
2018-02-25T04:05:40.866Z,1.80
2018-02-25T04:08:11.732Z,1.83
2018-02-25T04:10:41.834Z,1.63
2018-02-25T04:13:12.148Z,1.60
2018-02-25T04:15:42.302Z,1.93
2018-02-25T04:18:13.359Z,1.60
2018-02-25T04:20:44.350Z,1.70
2018-02-25T04:23:14.732Z,1.60
2018-02-25T04:25:44.834Z,1.90
2018-02-25T04:28:15.657Z,1.67
2018-02-25T04:30:46.071Z,1.63
2018-02-25T04:33:17.769Z,1.70
2018-02-25T04:35:48.208Z,1.67
2018-02-25T04:38:19.544Z,1.77
2018-02-25T04:40:51.194Z,1.30
2018-02-25T04:43:22.428Z,1.90
2018-02-25T04:45:52.417Z,1.73
2018-02-25T04:48:22.412Z,1.10
2018-02-25T04:50:53.348Z,1.50
2018-02-25T04:53:23.983Z,1.57
2018-02-25T04:55:54.776Z,2.20
2018-02-25T04:58:24.779Z,1.40
2018-02-25T05:00:55.175Z,1.40
2018-02-25T05:03:25.587Z,1.70
2018-02-25T05:05:56.315Z,1.40
2018-02-25T05:08:26.440Z,1.30
2018-02-25T05:10:56.684Z,2.03
2018-02-25T05:13:27.217Z,1.87
2018-02-25T05:15:57.603Z,1.83
2018-02-25T05:18:28.057Z,1.53
2018-02-25T05:20:59.275Z,1.37
2018-02-25T05:23:29.791Z,2.40
2018-02-25T05:26:00.126Z,1.50
2018-02-25T05:28:30.798Z,1.53
2018-02-25T05:31:01.141Z,2.20
2018-02-25T05:33:31.325Z,1.63
2018-02-25T05:36:01.640Z,1.50
2018-02-25T05:38:31.715Z,1.97
2018-02-25T05:41:02.832Z,1.90
2018-02-25T05:43:32.939Z,2.00
2018-02-25T05:46:04.148Z,1.70
2018-02-25T05:48:34.151Z,1.37
2018-02-25T05:51:05.150Z,1.63
2018-02-25T05:53:35.733Z,1.70
2018-02-25T05:56:05.903Z,2.23
2018-02-25T05:58:37.041Z,1.53
2018-02-25T06:01:07.484Z,1.67
2018-02-25T06:03:38.884Z,1.30
2018-02-25T06:06:09.398Z,1.60
2018-02-25T06:08:39.465Z,1.63
2018-02-25T06:11:09.836Z,2.03
2018-02-25T06:13:40.416Z,1.80
2018-02-25T06:16:10.498Z,2.13
2018-02-25T06:18:41.152Z,1.50
2018-02-25T06:21:11.528Z,1.87
2018-02-25T06:23:42.188Z,1.67
2018-02-25T06:26:12.893Z,1.67
2018-02-25T06:28:43.917Z,1.60
2018-02-25T06:31:14.396Z,1.50
2018-02-25T06:33:45.068Z,2.00
2018-02-25T06:36:15.364Z,1.50
2018-02-25T06:38:45.768Z,1.90
2018-02-25T06:41:16.254Z,1.20
2018-02-25T06:43:47.303Z,1.77
2018-02-25T06:46:18.876Z,2.00
2018-02-25T06:48:50.436Z,2.30
2018-02-25T06:51:20.749Z,1.80
2018-02-25T06:53:50.977Z,1.80
2018-02-25T06:56:21.288Z,1.43
2018-02-25T06:58:56.107Z,1.50
2018-02-25T07:01:32.252Z,2.10
2018-02-25T07:04:05.120Z,2.10
2018-02-25T07:06:39.833Z,2.20
2018-02-25T07:09:10.805Z,2.67
2018-02-25T07:11:41.566Z,2.33
2018-02-25T07:14:12.472Z,1.87
2018-02-25T07:16:43.844Z,2.27
2018-02-25T07:19:14.124Z,1.77
2018-02-25T07:21:45.776Z,2.60
2018-02-25T07:24:16.450Z,2.17
2018-02-25T07:26:48.191Z,1.90
2018-02-25T07:29:18.488Z,1.90
2018-02-25T07:31:49.828Z,1.97
2018-02-25T07:34:19.998Z,1.70
2018-02-25T07:36:52.111Z,2.40
2018-02-25T07:39:22.650Z,2.03
2018-02-25T07:41:52.961Z,1.87
2018-02-25T07:44:23.510Z,1.60
2018-02-25T07:46:53.670Z,1.70
2018-02-25T07:49:24.202Z,1.60
2018-02-25T07:51:54.326Z,2.33
2018-02-25T07:54:25.038Z,2.17
2018-02-25T07:56:55.592Z,1.60
2018-02-25T07:59:26.920Z,2.53
2018-02-25T08:01:57.400Z,2.30
2018-02-25T08:04:27.933Z,1.93
2018-02-25T08:06:58.344Z,1.97
2018-02-25T08:09:28.766Z,2.40
2018-02-25T08:11:58.803Z,2.77
2018-02-25T08:14:29.715Z,2.27
2018-02-25T08:16:59.825Z,2.23
2018-02-25T08:19:36.531Z,2.40
2018-02-25T08:22:12.599Z,2.50
2018-02-25T08:24:43.669Z,2.07
2018-02-25T08:27:14.301Z,2.07
2018-02-25T08:29:52.329Z,2.63
2018-02-25T08:32:23.459Z,2.53
2018-02-25T08:34:54.226Z,2.30
2018-02-25T08:37:24.345Z,1.90
2018-02-25T08:39:54.893Z,2.37
2018-02-25T08:42:26.028Z,2.30
2018-02-25T08:44:57.067Z,2.00
2018-02-25T08:47:27.346Z,2.20
2018-02-25T08:49:57.398Z,2.40
2018-02-25T08:52:29.619Z,2.60
2018-02-25T08:55:00.041Z,2.13
2018-02-25T08:57:30.200Z,2.40
2018-02-25T09:00:00.359Z,2.40
2018-02-25T09:02:31.170Z,2.47
2018-02-25T09:05:02.196Z,2.27
2018-02-25T09:07:32.752Z,2.50
2018-02-25T09:10:02.824Z,2.10
2018-02-25T09:12:33.344Z,2.57
2018-02-25T09:15:03.463Z,2.20
2018-02-25T09:17:33.571Z,2.20
2018-02-25T09:20:03.700Z,1.90
2018-02-25T09:22:34.082Z,2.73
2018-02-25T09:25:04.578Z,2.90
2018-02-25T09:27:35.123Z,2.60
2018-02-25T09:30:05.505Z,2.77
2018-02-25T09:32:35.979Z,3.03
2018-02-25T09:35:06.044Z,2.63
2018-02-25T09:37:36.088Z,2.70
2018-02-25T09:40:06.253Z,2.87
2018-02-25T09:42:36.394Z,2.70
2018-02-25T09:45:06.441Z,2.77
2018-02-25T09:47:36.716Z,2.80
2018-02-25T09:50:07.640Z,2.70
2018-02-25T09:52:37.739Z,2.87
2018-02-25T09:55:08.270Z,2.40
2018-02-25T09:57:38.396Z,2.33
2018-02-25T10:00:08.823Z,2.43
2018-02-25T10:02:38.947Z,2.63
2018-02-25T10:05:09.058Z,2.50
2018-02-25T10:07:39.393Z,2.20
2018-02-25T10:10:10.603Z,2.70
2018-02-25T10:12:40.936Z,1.80
2018-02-25T10:15:11.522Z,1.67
2018-02-25T10:17:41.932Z,2.10
2018-02-25T10:20:12.821Z,2.60
2018-02-25T10:22:42.995Z,1.70
2018-02-25T10:25:13.872Z,2.17
2018-02-25T10:27:44.167Z,2.40
2018-02-25T10:30:14.239Z,2.50
2018-02-25T10:32:45.072Z,2.67
2018-02-25T10:35:15.642Z,2.40
2018-02-25T10:37:45.765Z,1.83
2018-02-25T10:40:16.103Z,1.67
2018-02-25T10:42:46.317Z,2.50
2018-02-25T10:45:16.434Z,2.00
2018-02-25T10:47:46.592Z,1.90
2018-02-25T10:50:17.151Z,1.63
2018-02-25T10:52:49.368Z,1.70
2018-02-25T10:55:21.157Z,1.80
2018-02-25T10:57:52.420Z,1.57
2018-02-25T11:00:27.364Z,1.80
2018-02-25T11:03:00.798Z,1.63
2018-02-25T11:05:33.956Z,2.50
2018-02-25T11:08:05.264Z,1.80
2018-02-25T11:10:37.847Z,2.00
2018-02-25T11:13:08.231Z,1.70
2018-02-25T11:15:45.446Z,1.70
2018-02-25T11:18:16.016Z,1.80
2018-02-25T11:20:49.088Z,1.73
2018-02-25T11:23:19.664Z,1.37
2018-02-25T11:25:49.773Z,1.70
2018-02-25T11:28:20.340Z,1.80
2018-02-25T11:30:50.376Z,1.67
2018-02-25T11:33:20.499Z,2.10
2018-02-25T11:35:51.268Z,1.97
2018-02-25T11:38:21.289Z,2.00
2018-02-25T11:40:51.855Z,1.70
2018-02-25T11:43:22.197Z,1.77
2018-02-25T11:45:54.154Z,1.90
2018-02-25T11:48:34.675Z,1.87
2018-02-25T11:51:15.383Z,2.00
2018-02-25T11:53:45.606Z,2.10
2018-02-25T11:56:15.684Z,1.90
2018-02-25T11:58:46.227Z,1.60
2018-02-25T12:01:17.324Z,2.67
2018-02-25T12:03:48.176Z,2.07
2018-02-25T12:06:18.567Z,2.50
2018-02-25T12:08:48.660Z,2.37
2018-02-25T12:11:18.834Z,2.13
2018-02-25T12:13:49.049Z,2.23
2018-02-25T12:16:19.834Z,2.20
2018-02-25T12:18:49.957Z,2.40
2018-02-25T12:21:20.458Z,1.90
2018-02-25T12:23:50.587Z,2.10
2018-02-25T12:26:20.622Z,1.90
2018-02-25T12:28:50.718Z,2.10
2018-02-25T12:31:21.122Z,1.60
2018-02-25T12:33:51.594Z,1.90
2018-02-25T12:36:21.664Z,1.80
2018-02-25T12:38:51.680Z,2.13
2018-02-25T12:41:23.699Z,2.10
2018-02-25T12:43:54.000Z,2.00
2018-02-25T12:46:24.342Z,1.90
2018-02-25T12:48:55.146Z,1.80
2018-02-25T12:51:29.415Z,1.90
2018-02-25T12:54:01.524Z,2.37
2018-02-25T12:56:31.749Z,2.17
2018-02-25T12:59:02.172Z,1.80
2018-02-25T13:01:32.246Z,1.80
2018-02-25T13:04:02.372Z,1.57
2018-02-25T13:06:33.212Z,2.30
2018-02-25T13:09:04.140Z,2.03
2018-02-25T13:11:34.629Z,2.40
2018-02-25T13:14:04.681Z,2.27
2018-02-25T13:16:37.603Z,2.10
2018-02-25T13:19:07.687Z,1.93
2018-02-25T13:21:38.665Z,2.40
2018-02-25T13:24:08.717Z,2.13
2018-02-25T13:26:39.404Z,2.03
2018-02-25T13:29:09.392Z,2.07
2018-02-25T13:31:39.450Z,2.30
2018-02-25T13:34:09.580Z,2.40
2018-02-25T13:36:40.200Z,2.80
2018-02-25T13:39:10.628Z,2.60
2018-02-25T13:41:40.847Z,2.53
2018-02-25T13:44:10.938Z,2.57
2018-02-25T13:46:41.733Z,2.50
2018-02-25T13:49:11.779Z,2.70
2018-02-25T13:51:42.600Z,2.30
2018-02-25T13:54:13.251Z,3.03
2018-02-25T13:56:44.108Z,2.90
2018-02-25T13:59:14.416Z,2.00
2018-02-25T14:01:45.202Z,1.97
2018-02-25T14:04:15.652Z,2.10
2018-02-25T14:06:45.670Z,2.10
2018-02-25T14:09:15.943Z,2.20
2018-02-25T14:11:48.160Z,1.97
2018-02-25T14:14:18.148Z,1.97
2018-02-25T14:16:48.194Z,1.90
2018-02-25T14:19:18.270Z,1.93
2018-02-25T14:21:48.621Z,1.90
2018-02-25T14:24:18.761Z,2.17
2018-02-25T14:26:49.688Z,2.20
2018-02-25T14:29:20.048Z,1.97
2018-02-25T14:31:50.887Z,1.97
2018-02-25T14:34:20.904Z,1.80
2018-02-25T14:36:51.076Z,1.80
2018-02-25T14:39:21.361Z,1.60
2018-02-25T14:41:51.772Z,1.90
2018-02-25T14:44:21.854Z,2.00
2018-02-25T14:46:52.011Z,2.50
2018-02-25T14:49:22.168Z,2.37
2018-02-25T14:51:52.283Z,1.90
2018-02-25T14:54:22.361Z,1.50
2018-02-25T14:56:52.835Z,1.80
2018-02-25T14:59:22.986Z,1.70
2018-02-25T15:01:53.913Z,1.30
2018-02-25T15:04:25.845Z,1.50
2018-02-25T15:06:57.272Z,2.10
2018-02-25T15:09:27.464Z,1.27
2018-02-25T15:11:58.307Z,1.67
2018-02-25T15:14:35.231Z,1.57
2018-02-25T15:17:06.573Z,1.80
2018-02-25T15:19:40.016Z,1.77
2018-02-25T15:22:12.867Z,1.70
2018-02-25T15:24:53.622Z,1.47
2018-02-25T15:27:23.738Z,1.67
2018-02-25T15:29:53.775Z,1.80
2018-02-25T15:32:24.333Z,1.77
2018-02-25T15:34:55.100Z,2.13
2018-02-25T15:37:33.310Z,2.00
2018-02-25T15:40:14.093Z,1.80
2018-02-25T15:42:45.040Z,1.60
2018-02-25T15:45:15.177Z,1.60
2018-02-25T15:47:46.640Z,1.73
2018-02-25T15:50:16.709Z,1.53
2018-02-25T15:52:47.015Z,1.70
2018-02-25T15:55:17.060Z,1.60
2018-02-25T15:57:47.128Z,2.03
2018-02-25T16:00:18.000Z,1.80
2018-02-25T16:02:48.400Z,1.90
2018-02-25T16:05:18.430Z,2.03
2018-02-25T16:07:48.799Z,2.00
2018-02-25T16:10:18.827Z,1.83
2018-02-25T16:12:49.056Z,2.20
2018-02-25T16:15:20.232Z,2.13
2018-02-25T16:17:50.639Z,2.20
2018-02-25T16:20:21.499Z,1.70
2018-02-25T16:22:51.538Z,1.90
2018-02-25T16:25:21.540Z,1.80
2018-02-25T16:27:51.595Z,1.77
2018-02-25T16:30:21.698Z,2.23
2018-02-25T16:32:51.846Z,2.17
2018-02-25T16:35:22.395Z,2.00
2018-02-25T16:37:52.609Z,1.90
2018-02-25T16:40:24.214Z,2.40
2018-02-25T16:42:54.487Z,2.03
2018-02-25T16:45:25.547Z,1.93
2018-02-25T16:47:56.752Z,1.67
2018-02-25T16:50:26.815Z,1.67
2018-02-25T16:52:57.951Z,1.50
2018-02-25T16:55:28.297Z,1.70
2018-02-25T16:57:58.446Z,2.23
2018-02-25T17:00:30.070Z,2.10
2018-02-25T17:03:00.182Z,2.03
2018-02-25T17:05:30.552Z,1.70
2018-02-25T17:08:00.801Z,2.37
2018-02-25T17:10:31.690Z,1.80
2018-02-25T17:13:02.128Z,1.97
2018-02-25T17:15:32.179Z,2.40
2018-02-25T17:18:03.080Z,2.13
2018-02-25T17:20:34.295Z,1.90
2018-02-25T17:23:04.888Z,2.00
2018-02-25T17:25:35.252Z,2.87
2018-02-25T17:28:05.481Z,2.50
2018-02-25T17:30:35.580Z,2.53
2018-02-25T17:33:05.854Z,3.03
2018-02-25T17:35:35.887Z,2.37
2018-02-25T17:38:06.999Z,2.80
2018-02-25T17:40:37.146Z,2.03
2018-02-25T17:43:08.280Z,2.10
2018-02-25T17:45:39.487Z,2.80
2018-02-25T17:48:09.717Z,1.93
2018-02-25T17:50:40.404Z,2.47
2018-02-25T17:53:10.783Z,2.53
2018-02-25T17:55:41.143Z,2.47
2018-02-25T17:58:11.515Z,3.03
2018-02-25T18:00:41.963Z,3.30
2018-02-25T18:03:12.430Z,2.80
2018-02-25T18:05:42.755Z,2.67
2018-02-25T18:08:16.348Z,2.83
2018-02-25T18:10:48.903Z,2.47
2018-02-25T18:13:20.479Z,3.10
2018-02-25T18:15:51.624Z,3.03
2018-02-25T18:18:22.667Z,2.50
2018-02-25T18:20:54.035Z,3.30
2018-02-25T18:23:24.066Z,3.10
2018-02-25T18:25:56.538Z,3.23
2018-02-25T18:28:27.992Z,3.20
2018-02-25T18:30:58.204Z,3.07
2018-02-25T18:33:28.273Z,3.17
2018-02-25T18:35:59.633Z,3.40
2018-02-25T18:38:30.824Z,3.27
2018-02-25T18:41:02.144Z,3.33
2018-02-25T18:43:32.888Z,3.30
2018-02-25T18:46:02.968Z,3.47
2018-02-25T18:48:33.256Z,2.83
2018-02-25T18:51:03.614Z,3.00
2018-02-25T18:53:34.574Z,3.20
2018-02-25T18:56:05.065Z,3.00
2018-02-25T18:58:35.966Z,2.83
2018-02-25T19:01:06.736Z,3.27
2018-02-25T19:03:39.257Z,3.30
2018-02-25T19:06:11.219Z,3.00
2018-02-25T19:08:43.105Z,3.10
2018-02-25T19:11:14.219Z,2.90
2018-02-25T19:13:44.355Z,4.13
2018-02-25T19:16:15.063Z,3.80
2018-02-25T19:18:48.423Z,4.20
2018-02-25T19:21:19.647Z,4.03
2018-02-25T19:23:50.808Z,4.80
2018-02-25T19:26:20.915Z,4.83
2018-02-25T19:28:52.667Z,4.00
2018-02-25T19:31:24.002Z,3.90
2018-02-25T19:33:55.832Z,3.93
2018-02-25T19:36:33.900Z,3.53
2018-02-25T19:40:09.757Z,3.43
2018-02-25T19:42:41.679Z,4.17
2018-02-25T19:45:12.451Z,3.10
2018-02-25T19:47:43.851Z,4.43
2018-02-25T19:50:15.500Z,3.83
2018-02-25T19:52:49.356Z,4.03
2018-02-25T19:55:21.439Z,3.10
2018-02-25T19:57:53.090Z,3.17
2018-02-25T20:00:23.285Z,2.93
2018-02-25T20:02:53.440Z,3.53
2018-02-25T20:05:23.940Z,3.63
2018-02-25T20:07:54.914Z,3.97
2018-02-25T20:10:25.060Z,3.33
2018-02-25T20:12:56.160Z,3.97
2018-02-25T20:15:26.805Z,3.53
2018-02-25T20:17:56.850Z,3.70
2018-02-25T20:20:31.926Z,3.17
2018-02-25T20:23:06.555Z,3.10
2018-02-25T20:25:37.795Z,3.50
2018-02-25T20:28:08.347Z,3.53
2018-02-25T20:30:39.095Z,3.67
2018-02-25T20:33:09.741Z,3.20
2018-02-25T20:35:40.567Z,3.37
2018-02-25T20:38:13.079Z,3.03
2018-02-25T20:40:43.263Z,3.20
2018-02-25T20:43:13.778Z,3.93
2018-02-25T20:45:44.834Z,3.80
2018-02-25T20:48:15.482Z,4.30
2018-02-25T20:50:46.553Z,3.63
2018-02-25T20:53:17.780Z,3.83
2018-02-25T20:55:48.682Z,4.10
2018-02-25T20:58:19.332Z,3.30
2018-02-25T21:00:49.497Z,3.47
2018-02-25T21:03:19.600Z,4.00
2018-02-25T21:05:49.691Z,4.07
2018-02-25T21:08:20.198Z,3.60
2018-02-25T21:10:50.780Z,3.37
2018-02-25T21:13:20.964Z,3.67
2018-02-25T21:15:51.510Z,4.03
2018-02-25T21:18:22.058Z,3.43
2018-02-25T21:20:52.319Z,4.50
2018-02-25T21:23:22.951Z,3.70
2018-02-25T21:25:53.604Z,4.20
2018-02-25T21:28:23.978Z,4.63
2018-02-25T21:30:55.001Z,3.60
2018-02-25T21:33:25.092Z,3.93
2018-02-25T21:35:55.658Z,4.43
2018-02-25T21:38:25.907Z,3.60
2018-02-25T21:40:56.012Z,3.87
2018-02-25T21:43:27.283Z,3.80
2018-02-25T21:45:57.673Z,3.87
2018-02-25T21:48:28.692Z,3.37
2018-02-25T21:50:58.835Z,3.20
2018-02-25T21:53:34.455Z,3.73
2018-02-25T21:56:09.240Z,3.10
2018-02-25T22:00:46.543Z,3.10
2018-02-25T22:03:36.980Z,3.17
2018-02-25T22:06:07.060Z,2.33
2018-02-25T22:08:37.151Z,2.73
2018-02-25T22:11:08.424Z,2.83
2018-02-25T22:13:39.921Z,3.10
2018-02-25T22:16:11.111Z,2.80
2018-02-25T22:18:41.580Z,3.10
2018-02-25T22:21:12.375Z,2.83
2018-02-25T22:23:42.672Z,2.83
2018-02-25T22:26:13.968Z,2.20
2018-02-25T22:28:44.204Z,2.80
2018-02-25T22:31:14.524Z,2.00
2018-02-25T22:33:44.975Z,2.40
2018-02-25T22:36:15.516Z,2.80
2018-02-25T22:38:46.698Z,3.00
2018-02-25T22:41:17.293Z,3.03
2018-02-25T22:43:47.502Z,2.90
2018-02-25T22:46:18.416Z,2.73
2018-02-25T22:48:48.754Z,3.10
2018-02-25T22:51:19.426Z,3.10
2018-02-25T22:53:49.749Z,2.93
2018-02-25T22:56:19.920Z,3.23
2018-02-25T22:58:50.251Z,2.87
2018-02-25T23:01:20.554Z,3.33
2018-02-25T23:03:50.691Z,3.30
2018-02-25T23:06:21.388Z,2.93
2018-02-25T23:08:51.753Z,3.23
2018-02-25T23:11:21.856Z,2.20
2018-02-25T23:13:52.471Z,3.07
2018-02-25T23:16:22.481Z,3.10
2018-02-25T23:18:52.471Z,2.63
2018-02-25T23:21:22.768Z,2.77
2018-02-25T23:23:53.496Z,3.13
2018-02-25T23:26:23.460Z,3.00
2018-02-25T23:28:53.709Z,3.63
2018-02-25T23:31:23.986Z,3.37
2018-02-25T23:33:54.356Z,3.57
2018-02-25T23:36:24.496Z,3.00
2018-02-25T23:38:55.795Z,3.73
2018-02-25T23:41:26.420Z,3.60
2018-02-25T23:43:56.736Z,4.00
2018-02-25T23:46:27.267Z,3.97
2018-02-25T23:48:57.875Z,4.03
2018-02-25T23:51:28.725Z,3.97
2018-02-25T23:53:58.849Z,4.83
2018-02-25T23:56:28.824Z,3.97
2018-02-25T23:58:59.469Z,4.53
